sensor_id;sensor_type;location;lat;lon;timestamp;P1;durP1;ratioP1;P2;durP2;ratioP2
64052;SDS011;50299;49.524;8.536;2023-06-26T00:01:00;9.95;;;7.82;;
64052;SDS011;50299;49.524;8.536;2023-06-26T00:03:29;9.82;;;8.55;;
64052;SDS011;50299;49.524;8.536;2023-06-26T00:05:56;9.35;;;7.32;;
64052;SDS011;50299;49.524;8.536;2023-06-26T00:08:27;8.65;;;7.85;;
64052;SDS011;50299;49.524;8.536;2023-06-26T00:10:54;8.35;;;7.65;;
64052;SDS011;50299;49.524;8.536;2023-06-26T00:13:21;8.88;;;7.95;;
64052;SDS011;50299;49.524;8.536;2023-06-26T00:15:48;8.13;;;7.43;;
64052;SDS011;50299;49.524;8.536;2023-06-26T00:18:16;8.07;;;7.38;;
64052;SDS011;50299;49.524;8.536;2023-06-26T00:20:45;9.45;;;8.10;;
64052;SDS011;50299;49.524;8.536;2023-06-26T00:23:11;8.57;;;7.78;;
64052;SDS011;50299;49.524;8.536;2023-06-26T00:25:39;8.88;;;8.07;;
64052;SDS011;50299;49.524;8.536;2023-06-26T00:28:06;8.68;;;7.90;;
64052;SDS011;50299;49.524;8.536;2023-06-26T00:30:32;9.00;;;7.97;;
64052;SDS011;50299;49.524;8.536;2023-06-26T00:32:58;9.30;;;8.40;;
64052;SDS011;50299;49.524;8.536;2023-06-26T00:35:25;8.88;;;7.60;;
64052;SDS011;50299;49.524;8.536;2023-06-26T00:37:51;9.35;;;8.30;;
64052;SDS011;50299;49.524;8.536;2023-06-26T00:40:18;8.98;;;8.20;;
64052;SDS011;50299;49.524;8.536;2023-06-26T00:42:44;8.88;;;8.07;;
64052;SDS011;50299;49.524;8.536;2023-06-26T00:45:11;9.43;;;8.55;;
64052;SDS011;50299;49.524;8.536;2023-06-26T00:47:37;8.43;;;7.63;;
64052;SDS011;50299;49.524;8.536;2023-06-26T00:50:05;9.15;;;8.35;;
64052;SDS011;50299;49.524;8.536;2023-06-26T00:52:32;9.95;;;9.05;;
64052;SDS011;50299;49.524;8.536;2023-06-26T00:54:58;9.10;;;8.30;;
64052;SDS011;50299;49.524;8.536;2023-06-26T00:57:25;9.48;;;8.45;;
64052;SDS011;50299;49.524;8.536;2023-06-26T00:59:52;9.95;;;9.05;;
64052;SDS011;50299;49.524;8.536;2023-06-26T01:02:19;9.75;;;8.85;;
64052;SDS011;50299;49.524;8.536;2023-06-26T01:04:47;10.88;;;9.85;;
64052;SDS011;50299;49.524;8.536;2023-06-26T01:07:18;9.23;;;8.20;;
64052;SDS011;50299;49.524;8.536;2023-06-26T01:09:47;9.00;;;7.90;;
64052;SDS011;50299;49.524;8.536;2023-06-26T01:12:14;9.15;;;8.25;;
64052;SDS011;50299;49.524;8.536;2023-06-26T01:14:41;9.48;;;8.55;;
64052;SDS011;50299;49.524;8.536;2023-06-26T01:17:07;9.60;;;8.55;;
64052;SDS011;50299;49.524;8.536;2023-06-26T01:19:38;9.88;;;8.98;;
64052;SDS011;50299;49.524;8.536;2023-06-26T01:25:02;8.85;;;8.07;;
64052;SDS011;50299;49.524;8.536;2023-06-26T01:27:36;9.45;;;8.57;;
64052;SDS011;50299;49.524;8.536;2023-06-26T01:30:06;9.27;;;8.48;;
64052;SDS011;50299;49.524;8.536;2023-06-26T01:32:34;9.23;;;8.32;;
64052;SDS011;50299;49.524;8.536;2023-06-26T01:35:01;9.75;;;8.77;;
64052;SDS011;50299;49.524;8.536;2023-06-26T01:37:28;9.07;;;8.27;;
64052;SDS011;50299;49.524;8.536;2023-06-26T01:39:54;9.25;;;8.38;;
64052;SDS011;50299;49.524;8.536;2023-06-26T01:42:21;9.10;;;8.20;;
64052;SDS011;50299;49.524;8.536;2023-06-26T01:44:47;8.85;;;8.05;;
64052;SDS011;50299;49.524;8.536;2023-06-26T01:47:16;8.85;;;7.95;;
64052;SDS011;50299;49.524;8.536;2023-06-26T01:49:47;9.05;;;8.10;;
64052;SDS011;50299;49.524;8.536;2023-06-26T01:57:38;9.50;;;8.07;;
64052;SDS011;50299;49.524;8.536;2023-06-26T02:03:01;8.73;;;7.93;;
64052;SDS011;50299;49.524;8.536;2023-06-26T02:05:28;9.13;;;8.23;;
64052;SDS011;50299;49.524;8.536;2023-06-26T02:07:57;8.85;;;8.02;;
64052;SDS011;50299;49.524;8.536;2023-06-26T02:10:23;9.48;;;8.57;;
64052;SDS011;50299;49.524;8.536;2023-06-26T02:12:50;8.25;;;7.45;;
64052;SDS011;50299;49.524;8.536;2023-06-26T02:15:16;9.00;;;8.10;;
64052;SDS011;50299;49.524;8.536;2023-06-26T02:17:42;9.10;;;8.30;;
64052;SDS011;50299;49.524;8.536;2023-06-26T02:20:10;8.63;;;7.88;;
64052;SDS011;50299;49.524;8.536;2023-06-26T02:22:36;8.75;;;7.93;;
64052;SDS011;50299;49.524;8.536;2023-06-26T02:25:03;10.30;;;9.10;;
64052;SDS011;50299;49.524;8.536;2023-06-26T02:27:30;11.27;;;8.63;;
64052;SDS011;50299;49.524;8.536;2023-06-26T02:29:56;9.02;;;8.23;;
64052;SDS011;50299;49.524;8.536;2023-06-26T02:32:22;9.95;;;9.05;;
64052;SDS011;50299;49.524;8.536;2023-06-26T02:34:49;9.82;;;8.90;;
64052;SDS011;50299;49.524;8.536;2023-06-26T02:37:18;9.68;;;8.77;;
64052;SDS011;50299;49.524;8.536;2023-06-26T02:39:44;9.27;;;8.48;;
64052;SDS011;50299;49.524;8.536;2023-06-26T02:42:11;9.20;;;8.35;;
64052;SDS011;50299;49.524;8.536;2023-06-26T02:44:37;9.13;;;8.23;;
64052;SDS011;50299;49.524;8.536;2023-06-26T02:47:04;9.27;;;8.38;;
64052;SDS011;50299;49.524;8.536;2023-06-26T02:49:31;9.82;;;8.82;;
64052;SDS011;50299;49.524;8.536;2023-06-26T02:51:57;8.35;;;7.55;;
64052;SDS011;50299;49.524;8.536;2023-06-26T02:54:23;9.15;;;8.30;;
64052;SDS011;50299;49.524;8.536;2023-06-26T02:56:50;10.10;;;8.70;;
64052;SDS011;50299;49.524;8.536;2023-06-26T02:59:16;8.55;;;7.72;;
64052;SDS011;50299;49.524;8.536;2023-06-26T03:01:44;9.02;;;8.13;;
64052;SDS011;50299;49.524;8.536;2023-06-26T03:04:11;9.30;;;8.40;;
64052;SDS011;50299;49.524;8.536;2023-06-26T03:06:37;8.85;;;8.05;;
64052;SDS011;50299;49.524;8.536;2023-06-26T03:09:04;9.20;;;8.23;;
64052;SDS011;50299;49.524;8.536;2023-06-26T03:11:30;8.50;;;7.70;;
64052;SDS011;50299;49.524;8.536;2023-06-26T03:13:57;9.00;;;8.20;;
64052;SDS011;50299;49.524;8.536;2023-06-26T03:16:23;9.60;;;8.70;;
64052;SDS011;50299;49.524;8.536;2023-06-26T03:18:50;9.70;;;8.88;;
64052;SDS011;50299;49.524;8.536;2023-06-26T03:21:17;9.55;;;8.57;;
64052;SDS011;50299;49.524;8.536;2023-06-26T03:23:46;9.57;;;8.55;;
64052;SDS011;50299;49.524;8.536;2023-06-26T03:26:15;9.95;;;8.95;;
64052;SDS011;50299;49.524;8.536;2023-06-26T03:28:44;9.02;;;8.13;;
64052;SDS011;50299;49.524;8.536;2023-06-26T03:31:11;9.80;;;8.85;;
64052;SDS011;50299;49.524;8.536;2023-06-26T03:33:37;10.10;;;9.15;;
64052;SDS011;50299;49.524;8.536;2023-06-26T03:36:04;10.35;;;9.35;;
64052;SDS011;50299;49.524;8.536;2023-06-26T03:38:32;10.48;;;8.85;;
64052;SDS011;50299;49.524;8.536;2023-06-26T03:40:59;10.18;;;9.25;;
64052;SDS011;50299;49.524;8.536;2023-06-26T03:43:25;9.90;;;9.00;;
64052;SDS011;50299;49.524;8.536;2023-06-26T03:45:52;9.52;;;8.63;;
64052;SDS011;50299;49.524;8.536;2023-06-26T03:48:18;10.07;;;8.93;;
64052;SDS011;50299;49.524;8.536;2023-06-26T03:50:49;10.38;;;8.88;;
64052;SDS011;50299;49.524;8.536;2023-06-26T03:53:15;9.98;;;8.93;;
64052;SDS011;50299;49.524;8.536;2023-06-26T03:55:42;10.65;;;9.40;;
64052;SDS011;50299;49.524;8.536;2023-06-26T03:58:08;9.60;;;8.15;;
64052;SDS011;50299;49.524;8.536;2023-06-26T04:00:34;11.65;;;10.65;;
64052;SDS011;50299;49.524;8.536;2023-06-26T04:03:01;9.63;;;8.63;;
64052;SDS011;50299;49.524;8.536;2023-06-26T04:05:29;9.23;;;8.32;;
64052;SDS011;50299;49.524;8.536;2023-06-26T04:07:55;9.05;;;8.15;;
64052;SDS011;50299;49.524;8.536;2023-06-26T04:10:22;8.68;;;7.88;;
64052;SDS011;50299;49.524;8.536;2023-06-26T04:12:48;9.23;;;7.93;;
64052;SDS011;50299;49.524;8.536;2023-06-26T04:15:15;9.85;;;8.65;;
64052;SDS011;50299;49.524;8.536;2023-06-26T04:17:41;8.68;;;7.88;;
64052;SDS011;50299;49.524;8.536;2023-06-26T04:20:08;9.05;;;7.72;;
64052;SDS011;50299;49.524;8.536;2023-06-26T04:22:35;9.50;;;8.55;;
64052;SDS011;50299;49.524;8.536;2023-06-26T04:25:02;8.85;;;7.95;;
64052;SDS011;50299;49.524;8.536;2023-06-26T04:27:29;8.25;;;7.38;;
64052;SDS011;50299;49.524;8.536;2023-06-26T04:30:02;8.45;;;7.72;;
64052;SDS011;50299;49.524;8.536;2023-06-26T04:32:29;8.02;;;7.20;;
64052;SDS011;50299;49.524;8.536;2023-06-26T04:34:55;8.23;;;7.43;;
64052;SDS011;50299;49.524;8.536;2023-06-26T04:37:22;9.57;;;7.80;;
64052;SDS011;50299;49.524;8.536;2023-06-26T04:39:50;9.20;;;7.85;;
64052;SDS011;50299;49.524;8.536;2023-06-26T04:42:17;11.45;;;8.55;;
64052;SDS011;50299;49.524;8.536;2023-06-26T04:44:48;8.02;;;7.22;;
64052;SDS011;50299;49.524;8.536;2023-06-26T04:47:16;10.57;;;7.75;;
64052;SDS011;50299;49.524;8.536;2023-06-26T04:49:43;8.32;;;7.53;;
64052;SDS011;50299;49.524;8.536;2023-06-26T04:52:14;12.35;;;7.68;;
64052;SDS011;50299;49.524;8.536;2023-06-26T04:54:40;10.07;;;7.53;;
64052;SDS011;50299;49.524;8.536;2023-06-26T04:57:09;8.18;;;7.25;;
64052;SDS011;50299;49.524;8.536;2023-06-26T04:59:38;11.10;;;7.38;;
64052;SDS011;50299;49.524;8.536;2023-06-26T05:02:07;7.80;;;7.05;;
64052;SDS011;50299;49.524;8.536;2023-06-26T05:04:33;8.55;;;7.30;;
64052;SDS011;50299;49.524;8.536;2023-06-26T05:07:00;8.27;;;7.45;;
64052;SDS011;50299;49.524;8.536;2023-06-26T05:09:26;9.15;;;7.63;;
64052;SDS011;50299;49.524;8.536;2023-06-26T05:11:53;12.55;;;7.68;;
64052;SDS011;50299;49.524;8.536;2023-06-26T05:14:19;8.25;;;7.55;;
64052;SDS011;50299;49.524;8.536;2023-06-26T05:16:49;8.00;;;7.30;;
64052;SDS011;50299;49.524;8.536;2023-06-26T05:19:16;8.07;;;7.30;;
64052;SDS011;50299;49.524;8.536;2023-06-26T05:21:43;9.57;;;7.63;;
64052;SDS011;50299;49.524;8.536;2023-06-26T05:24:10;9.80;;;7.15;;
64052;SDS011;50299;49.524;8.536;2023-06-26T05:26:39;12.93;;;7.78;;
64052;SDS011;50299;49.524;8.536;2023-06-26T05:29:06;8.70;;;7.80;;
64052;SDS011;50299;49.524;8.536;2023-06-26T05:31:40;8.82;;;7.70;;
64052;SDS011;50299;49.524;8.536;2023-06-26T05:34:07;7.47;;;6.72;;
64052;SDS011;50299;49.524;8.536;2023-06-26T05:36:37;10.10;;;7.30;;
64052;SDS011;50299;49.524;8.536;2023-06-26T05:41:37;8.70;;;7.53;;
64052;SDS011;50299;49.524;8.536;2023-06-26T05:44:04;9.05;;;7.97;;
64052;SDS011;50299;49.524;8.536;2023-06-26T05:46:31;9.88;;;8.88;;
64052;SDS011;50299;49.524;8.536;2023-06-26T05:48:58;8.60;;;7.22;;
64052;SDS011;50299;49.524;8.536;2023-06-26T05:51:30;7.88;;;7.18;;
64052;SDS011;50299;49.524;8.536;2023-06-26T05:53:59;12.15;;;7.68;;
64052;SDS011;50299;49.524;8.536;2023-06-26T05:56:29;11.13;;;8.23;;
64052;SDS011;50299;49.524;8.536;2023-06-26T05:58:57;10.18;;;7.78;;
64052;SDS011;50299;49.524;8.536;2023-06-26T06:01:24;10.02;;;7.97;;
64052;SDS011;50299;49.524;8.536;2023-06-26T06:03:51;9.80;;;8.45;;
64052;SDS011;50299;49.524;8.536;2023-06-26T06:06:17;9.52;;;8.52;;
64052;SDS011;50299;49.524;8.536;2023-06-26T06:08:44;11.68;;;8.50;;
64052;SDS011;50299;49.524;8.536;2023-06-26T06:11:14;17.30;;;9.15;;
64052;SDS011;50299;49.524;8.536;2023-06-26T06:13:41;11.23;;;7.95;;
64052;SDS011;50299;49.524;8.536;2023-06-26T06:16:09;9.52;;;8.05;;
64052;SDS011;50299;49.524;8.536;2023-06-26T06:18:35;9.40;;;7.60;;
64052;SDS011;50299;49.524;8.536;2023-06-26T06:21:09;19.95;;;9.35;;
64052;SDS011;50299;49.524;8.536;2023-06-26T06:23:38;10.65;;;8.07;;
64052;SDS011;50299;49.524;8.536;2023-06-26T06:26:07;8.43;;;7.63;;
64052;SDS011;50299;49.524;8.536;2023-06-26T06:28:33;8.52;;;7.70;;
64052;SDS011;50299;49.524;8.536;2023-06-26T06:31:00;12.25;;;8.23;;
64052;SDS011;50299;49.524;8.536;2023-06-26T06:33:26;13.48;;;7.63;;
64052;SDS011;50299;49.524;8.536;2023-06-26T06:35:53;16.00;;;8.52;;
64052;SDS011;50299;49.524;8.536;2023-06-26T06:38:19;10.13;;;7.57;;
64052;SDS011;50299;49.524;8.536;2023-06-26T06:40:46;9.48;;;7.80;;
64052;SDS011;50299;49.524;8.536;2023-06-26T06:43:12;9.75;;;7.10;;
64052;SDS011;50299;49.524;8.536;2023-06-26T06:45:39;12.05;;;7.40;;
64052;SDS011;50299;49.524;8.536;2023-06-26T06:48:05;15.70;;;8.05;;
64052;SDS011;50299;49.524;8.536;2023-06-26T06:50:32;17.67;;;7.63;;
64052;SDS011;50299;49.524;8.536;2023-06-26T06:52:59;9.15;;;7.03;;
64052;SDS011;50299;49.524;8.536;2023-06-26T06:55:25;7.93;;;7.20;;
64052;SDS011;50299;49.524;8.536;2023-06-26T06:57:52;10.32;;;7.32;;
64052;SDS011;50299;49.524;8.536;2023-06-26T07:00:18;7.90;;;7.10;;
64052;SDS011;50299;49.524;8.536;2023-06-26T07:02:45;8.15;;;7.35;;
64052;SDS011;50299;49.524;8.536;2023-06-26T07:05:13;19.55;;;8.23;;
64052;SDS011;50299;49.524;8.536;2023-06-26T07:07:40;9.18;;;7.38;;
64052;SDS011;50299;49.524;8.536;2023-06-26T07:10:07;7.95;;;6.68;;
64052;SDS011;50299;49.524;8.536;2023-06-26T07:12:35;7.55;;;6.75;;
64052;SDS011;50299;49.524;8.536;2023-06-26T07:15:02;8.80;;;7.25;;
64052;SDS011;50299;49.524;8.536;2023-06-26T07:20:00;14.60;;;8.15;;
64052;SDS011;50299;49.524;8.536;2023-06-26T07:22:32;7.72;;;7.03;;
64052;SDS011;50299;49.524;8.536;2023-06-26T07:24:58;7.53;;;6.80;;
64052;SDS011;50299;49.524;8.536;2023-06-26T07:27:25;8.57;;;7.22;;
64052;SDS011;50299;49.524;8.536;2023-06-26T07:29:52;7.80;;;6.53;;
64052;SDS011;50299;49.524;8.536;2023-06-26T07:32:21;19.63;;;8.93;;
64052;SDS011;50299;49.524;8.536;2023-06-26T07:34:48;8.02;;;7.25;;
64052;SDS011;50299;49.524;8.536;2023-06-26T07:37:15;8.77;;;7.18;;
64052;SDS011;50299;49.524;8.536;2023-06-26T07:39:42;7.65;;;7.03;;
64052;SDS011;50299;49.524;8.536;2023-06-26T07:42:08;8.15;;;7.32;;
64052;SDS011;50299;49.524;8.536;2023-06-26T07:44:35;10.48;;;7.25;;
64052;SDS011;50299;49.524;8.536;2023-06-26T07:47:01;7.60;;;6.90;;
64052;SDS011;50299;49.524;8.536;2023-06-26T07:49:28;7.45;;;6.78;;
64052;SDS011;50299;49.524;8.536;2023-06-26T07:51:55;9.70;;;7.53;;
64052;SDS011;50299;49.524;8.536;2023-06-26T07:54:21;8.75;;;7.35;;
64052;SDS011;50299;49.524;8.536;2023-06-26T07:56:55;10.15;;;7.13;;
64052;SDS011;50299;49.524;8.536;2023-06-26T07:59:23;8.75;;;7.38;;
64052;SDS011;50299;49.524;8.536;2023-06-26T08:01:51;10.10;;;7.30;;
64052;SDS011;50299;49.524;8.536;2023-06-26T08:04:19;13.10;;;7.15;;
64052;SDS011;50299;49.524;8.536;2023-06-26T08:06:53;19.98;;;7.57;;
64052;SDS011;50299;49.524;8.536;2023-06-26T08:09:21;7.72;;;6.90;;
64052;SDS011;50299;49.524;8.536;2023-06-26T08:14:16;9.55;;;6.88;;
64052;SDS011;50299;49.524;8.536;2023-06-26T08:16:43;7.15;;;6.43;;
64052;SDS011;50299;49.524;8.536;2023-06-26T08:19:11;29.48;;;8.77;;
64052;SDS011;50299;49.524;8.536;2023-06-26T08:21:39;10.90;;;6.90;;
64052;SDS011;50299;49.524;8.536;2023-06-26T08:24:06;9.18;;;6.90;;
64052;SDS011;50299;49.524;8.536;2023-06-26T08:26:33;16.23;;;6.78;;
64052;SDS011;50299;49.524;8.536;2023-06-26T08:29:00;12.48;;;6.80;;
64052;SDS011;50299;49.524;8.536;2023-06-26T08:31:27;12.40;;;7.18;;
64052;SDS011;50299;49.524;8.536;2023-06-26T08:33:53;8.45;;;6.85;;
64052;SDS011;50299;49.524;8.536;2023-06-26T08:36:20;10.00;;;7.47;;
64052;SDS011;50299;49.524;8.536;2023-06-26T08:38:49;7.70;;;6.90;;
64052;SDS011;50299;49.524;8.536;2023-06-26T08:41:16;7.82;;;6.70;;
64052;SDS011;50299;49.524;8.536;2023-06-26T08:43:42;10.25;;;6.95;;
64052;SDS011;50299;49.524;8.536;2023-06-26T08:46:09;9.50;;;6.63;;
64052;SDS011;50299;49.524;8.536;2023-06-26T08:48:36;10.68;;;7.57;;
64052;SDS011;50299;49.524;8.536;2023-06-26T08:51:05;10.57;;;6.53;;
64052;SDS011;50299;49.524;8.536;2023-06-26T08:53:49;12.05;;;6.80;;
64052;SDS011;50299;49.524;8.536;2023-06-26T08:56:20;7.28;;;6.00;;
64052;SDS011;50299;49.524;8.536;2023-06-26T08:58:48;7.25;;;5.75;;
64052;SDS011;50299;49.524;8.536;2023-06-26T09:01:15;6.47;;;5.95;;
64052;SDS011;50299;49.524;8.536;2023-06-26T09:03:43;6.20;;;5.60;;
64052;SDS011;50299;49.524;8.536;2023-06-26T09:06:12;57.42;;;9.35;;
64052;SDS011;50299;49.524;8.536;2023-06-26T09:08:39;13.93;;;6.18;;
64052;SDS011;50299;49.524;8.536;2023-06-26T09:11:05;9.40;;;5.78;;
64052;SDS011;50299;49.524;8.536;2023-06-26T09:13:32;6.18;;;5.53;;
64052;SDS011;50299;49.524;8.536;2023-06-26T09:15:59;7.85;;;6.13;;
64052;SDS011;50299;49.524;8.536;2023-06-26T09:18:32;14.07;;;5.57;;
64052;SDS011;50299;49.524;8.536;2023-06-26T09:20:59;30.10;;;7.75;;
64052;SDS011;50299;49.524;8.536;2023-06-26T09:23:26;7.18;;;5.60;;
64052;SDS011;50299;49.524;8.536;2023-06-26T09:25:53;5.88;;;5.30;;
64052;SDS011;50299;49.524;8.536;2023-06-26T09:28:20;7.32;;;5.18;;
64052;SDS011;50299;49.524;8.536;2023-06-26T09:30:50;6.07;;;5.30;;
64052;SDS011;50299;49.524;8.536;2023-06-26T09:33:18;16.60;;;6.25;;
64052;SDS011;50299;49.524;8.536;2023-06-26T09:35:46;8.80;;;6.07;;
64052;SDS011;50299;49.524;8.536;2023-06-26T09:38:14;8.15;;;5.38;;
64052;SDS011;50299;49.524;8.536;2023-06-26T09:40:44;7.25;;;5.50;;
64052;SDS011;50299;49.524;8.536;2023-06-26T09:43:14;8.02;;;6.22;;
64052;SDS011;50299;49.524;8.536;2023-06-26T09:45:40;6.43;;;5.82;;
64052;SDS011;50299;49.524;8.536;2023-06-26T09:48:07;5.93;;;5.20;;
64052;SDS011;50299;49.524;8.536;2023-06-26T09:50:35;6.50;;;5.88;;
64052;SDS011;50299;49.524;8.536;2023-06-26T09:53:10;6.43;;;5.82;;
64052;SDS011;50299;49.524;8.536;2023-06-26T09:55:38;6.50;;;5.90;;
64052;SDS011;50299;49.524;8.536;2023-06-26T09:58:08;11.70;;;6.45;;
64052;SDS011;50299;49.524;8.536;2023-06-26T10:00:35;6.32;;;5.72;;
64052;SDS011;50299;49.524;8.536;2023-06-26T10:03:02;8.30;;;6.22;;
64052;SDS011;50299;49.524;8.536;2023-06-26T10:05:29;6.88;;;6.28;;
64052;SDS011;50299;49.524;8.536;2023-06-26T10:07:59;6.70;;;6.10;;
64052;SDS011;50299;49.524;8.536;2023-06-26T10:10:26;8.13;;;6.50;;
64052;SDS011;50299;49.524;8.536;2023-06-26T10:12:54;7.55;;;6.30;;
64052;SDS011;50299;49.524;8.536;2023-06-26T10:15:25;6.72;;;6.13;;
64052;SDS011;50299;49.524;8.536;2023-06-26T10:17:55;7.47;;;6.82;;
64052;SDS011;50299;49.524;8.536;2023-06-26T10:22:51;8.68;;;7.32;;
64052;SDS011;50299;49.524;8.536;2023-06-26T10:25:18;7.68;;;7.03;;
64052;SDS011;50299;49.524;8.536;2023-06-26T10:27:53;6.93;;;6.22;;
64052;SDS011;50299;49.524;8.536;2023-06-26T10:30:31;7.25;;;6.53;;
64052;SDS011;50299;49.524;8.536;2023-06-26T10:33:01;7.72;;;6.68;;
64052;SDS011;50299;49.524;8.536;2023-06-26T10:35:30;6.85;;;6.15;;
64052;SDS011;50299;49.524;8.536;2023-06-26T10:38:02;9.05;;;6.68;;
64052;SDS011;50299;49.524;8.536;2023-06-26T10:40:41;8.35;;;6.28;;
64052;SDS011;50299;49.524;8.536;2023-06-26T10:43:09;8.30;;;6.18;;
64052;SDS011;50299;49.524;8.536;2023-06-26T10:45:43;8.48;;;6.25;;
64052;SDS011;50299;49.524;8.536;2023-06-26T10:48:12;6.50;;;5.93;;
64052;SDS011;50299;49.524;8.536;2023-06-26T10:50:40;7.45;;;6.68;;
64052;SDS011;50299;49.524;8.536;2023-06-26T10:53:08;7.85;;;7.15;;
64052;SDS011;50299;49.524;8.536;2023-06-26T10:55:36;7.03;;;6.47;;
64052;SDS011;50299;49.524;8.536;2023-06-26T10:58:03;6.70;;;6.10;;
64052;SDS011;50299;49.524;8.536;2023-06-26T11:00:30;6.90;;;6.30;;
64052;SDS011;50299;49.524;8.536;2023-06-26T11:02:57;6.97;;;6.38;;
64052;SDS011;50299;49.524;8.536;2023-06-26T11:05:24;6.95;;;6.35;;
64052;SDS011;50299;49.524;8.536;2023-06-26T11:08:05;7.35;;;6.07;;
64052;SDS011;50299;49.524;8.536;2023-06-26T11:13:21;8.57;;;6.70;;
64052;SDS011;50299;49.524;8.536;2023-06-26T11:15:49;7.38;;;6.40;;
64052;SDS011;50299;49.524;8.536;2023-06-26T11:18:19;8.63;;;6.55;;
64052;SDS011;50299;49.524;8.536;2023-06-26T11:20:50;15.25;;;7.32;;
64052;SDS011;50299;49.524;8.536;2023-06-26T11:23:18;12.70;;;7.45;;
64052;SDS011;50299;49.524;8.536;2023-06-26T11:25:49;10.35;;;6.85;;
64052;SDS011;50299;49.524;8.536;2023-06-26T11:28:16;9.75;;;7.05;;
64052;SDS011;50299;49.524;8.536;2023-06-26T11:30:43;8.30;;;6.38;;
64052;SDS011;50299;49.524;8.536;2023-06-26T11:33:09;7.53;;;6.72;;
64052;SDS011;50299;49.524;8.536;2023-06-26T11:35:36;6.43;;;5.93;;
64052;SDS011;50299;49.524;8.536;2023-06-26T11:38:04;23.42;;;7.20;;
64052;SDS011;50299;49.524;8.536;2023-06-26T11:40:35;8.73;;;6.05;;
64052;SDS011;50299;49.524;8.536;2023-06-26T11:43:03;6.38;;;5.63;;
64052;SDS011;50299;49.524;8.536;2023-06-26T11:45:30;15.82;;;6.88;;
64052;SDS011;50299;49.524;8.536;2023-06-26T11:47:58;10.88;;;5.50;;
64052;SDS011;50299;49.524;8.536;2023-06-26T11:50:26;18.10;;;6.72;;
64052;SDS011;50299;49.524;8.536;2023-06-26T11:52:54;6.40;;;5.10;;
64052;SDS011;50299;49.524;8.536;2023-06-26T11:57:49;6.60;;;5.43;;
64052;SDS011;50299;49.524;8.536;2023-06-26T12:00:20;15.23;;;5.68;;
64052;SDS011;50299;49.524;8.536;2023-06-26T12:02:47;10.77;;;5.50;;
64052;SDS011;50299;49.524;8.536;2023-06-26T12:05:15;10.38;;;5.20;;
64052;SDS011;50299;49.524;8.536;2023-06-26T12:07:43;5.55;;;5.03;;
64052;SDS011;50299;49.524;8.536;2023-06-26T12:10:14;5.47;;;4.97;;
64052;SDS011;50299;49.524;8.536;2023-06-26T12:12:41;20.75;;;5.93;;
64052;SDS011;50299;49.524;8.536;2023-06-26T12:15:08;16.70;;;5.90;;
64052;SDS011;50299;49.524;8.536;2023-06-26T12:17:41;15.57;;;5.53;;
64052;SDS011;50299;49.524;8.536;2023-06-26T12:20:42;18.85;;;6.07;;
64052;SDS011;50299;49.524;8.536;2023-06-26T12:23:12;5.28;;;4.78;;
64052;SDS011;50299;49.524;8.536;2023-06-26T12:25:39;15.85;;;5.63;;
64052;SDS011;50299;49.524;8.536;2023-06-26T12:28:15;71.57;;;9.27;;
64052;SDS011;50299;49.524;8.536;2023-06-26T12:30:46;13.07;;;5.50;;
64052;SDS011;50299;49.524;8.536;2023-06-26T12:33:14;11.70;;;4.90;;
64052;SDS011;50299;49.524;8.536;2023-06-26T12:38:09;11.02;;;5.57;;
64052;SDS011;50299;49.524;8.536;2023-06-26T12:40:44;6.07;;;5.50;;
64052;SDS011;50299;49.524;8.536;2023-06-26T12:43:11;6.15;;;5.63;;
64052;SDS011;50299;49.524;8.536;2023-06-26T12:45:48;7.85;;;6.50;;
64052;SDS011;50299;49.524;8.536;2023-06-26T12:48:19;6.13;;;5.47;;
64052;SDS011;50299;49.524;8.536;2023-06-26T12:50:46;6.25;;;5.20;;
64052;SDS011;50299;49.524;8.536;2023-06-26T12:53:14;6.32;;;5.72;;
64052;SDS011;50299;49.524;8.536;2023-06-26T12:55:40;13.82;;;6.68;;
64052;SDS011;50299;49.524;8.536;2023-06-26T12:58:07;9.02;;;6.40;;
64052;SDS011;50299;49.524;8.536;2023-06-26T13:00:34;6.85;;;6.20;;
64052;SDS011;50299;49.524;8.536;2023-06-26T13:03:01;15.50;;;9.38;;
64052;SDS011;50299;49.524;8.536;2023-06-26T13:05:37;12.00;;;10.75;;
64052;SDS011;50299;49.524;8.536;2023-06-26T13:08:03;15.70;;;10.90;;
64052;SDS011;50299;49.524;8.536;2023-06-26T13:10:32;12.98;;;10.63;;
64052;SDS011;50299;49.524;8.536;2023-06-26T13:12:59;13.95;;;10.80;;
64052;SDS011;50299;49.524;8.536;2023-06-26T13:15:26;22.65;;;10.98;;
64052;SDS011;50299;49.524;8.536;2023-06-26T13:17:53;10.75;;;8.75;;
64052;SDS011;50299;49.524;8.536;2023-06-26T13:20:19;41.70;;;10.40;;
64052;SDS011;50299;49.524;8.536;2023-06-26T13:22:46;35.80;;;9.52;;
64052;SDS011;50299;49.524;8.536;2023-06-26T13:25:12;8.27;;;7.25;;
64052;SDS011;50299;49.524;8.536;2023-06-26T13:27:39;8.32;;;7.28;;
64052;SDS011;50299;49.524;8.536;2023-06-26T13:30:05;8.82;;;7.88;;
64052;SDS011;50299;49.524;8.536;2023-06-26T13:32:35;8.55;;;7.60;;
64052;SDS011;50299;49.524;8.536;2023-06-26T13:35:02;10.30;;;7.18;;
64052;SDS011;50299;49.524;8.536;2023-06-26T13:37:30;17.83;;;7.97;;
64052;SDS011;50299;49.524;8.536;2023-06-26T13:39:56;13.77;;;7.03;;
64052;SDS011;50299;49.524;8.536;2023-06-26T13:42:25;7.28;;;6.50;;
64052;SDS011;50299;49.524;8.536;2023-06-26T13:44:51;11.43;;;6.53;;
64052;SDS011;50299;49.524;8.536;2023-06-26T13:47:29;35.88;;;7.78;;
64052;SDS011;50299;49.524;8.536;2023-06-26T13:49:56;18.70;;;6.10;;
64052;SDS011;50299;49.524;8.536;2023-06-26T13:52:25;15.35;;;5.50;;
64052;SDS011;50299;49.524;8.536;2023-06-26T13:54:51;7.90;;;4.57;;
64052;SDS011;50299;49.524;8.536;2023-06-26T13:57:18;5.80;;;4.22;;
64052;SDS011;50299;49.524;8.536;2023-06-26T13:59:48;4.72;;;3.85;;
64052;SDS011;50299;49.524;8.536;2023-06-26T14:02:14;8.93;;;4.20;;
64052;SDS011;50299;49.524;8.536;2023-06-26T14:04:41;5.40;;;3.33;;
64052;SDS011;50299;49.524;8.536;2023-06-26T14:07:08;11.35;;;3.45;;
64052;SDS011;50299;49.524;8.536;2023-06-26T14:09:35;3.70;;;3.17;;
64052;SDS011;50299;49.524;8.536;2023-06-26T14:12:02;3.60;;;2.72;;
64052;SDS011;50299;49.524;8.536;2023-06-26T14:14:29;5.90;;;2.58;;
64052;SDS011;50299;49.524;8.536;2023-06-26T14:16:55;4.15;;;2.28;;
64052;SDS011;50299;49.524;8.536;2023-06-26T14:19:22;4.75;;;2.88;;
64052;SDS011;50299;49.524;8.536;2023-06-26T14:21:49;3.83;;;2.40;;
64052;SDS011;50299;49.524;8.536;2023-06-26T14:24:15;4.13;;;2.50;;
64052;SDS011;50299;49.524;8.536;2023-06-26T14:26:41;3.33;;;2.60;;
64052;SDS011;50299;49.524;8.536;2023-06-26T14:29:08;3.20;;;2.50;;
64052;SDS011;50299;49.524;8.536;2023-06-26T14:31:34;3.65;;;1.98;;
64052;SDS011;50299;49.524;8.536;2023-06-26T14:34:01;2.85;;;2.20;;
64052;SDS011;50299;49.524;8.536;2023-06-26T14:36:29;5.43;;;2.63;;
64052;SDS011;50299;49.524;8.536;2023-06-26T14:38:58;3.67;;;2.53;;
64052;SDS011;50299;49.524;8.536;2023-06-26T14:41:26;4.40;;;2.20;;
64052;SDS011;50299;49.524;8.536;2023-06-26T14:43:55;3.15;;;2.30;;
64052;SDS011;50299;49.524;8.536;2023-06-26T14:46:22;3.45;;;2.60;;
64052;SDS011;50299;49.524;8.536;2023-06-26T14:48:50;3.03;;;2.25;;
64052;SDS011;50299;49.524;8.536;2023-06-26T14:51:21;3.13;;;2.67;;
64052;SDS011;50299;49.524;8.536;2023-06-26T14:53:48;3.75;;;2.30;;
64052;SDS011;50299;49.524;8.536;2023-06-26T14:56:14;5.20;;;2.90;;
64052;SDS011;50299;49.524;8.536;2023-06-26T14:58:41;4.75;;;2.40;;
64052;SDS011;50299;49.524;8.536;2023-06-26T15:01:08;4.25;;;2.28;;
64052;SDS011;50299;49.524;8.536;2023-06-26T15:03:35;3.83;;;2.40;;
64052;SDS011;50299;49.524;8.536;2023-06-26T15:06:02;4.30;;;2.45;;
64052;SDS011;50299;49.524;8.536;2023-06-26T15:08:28;2.80;;;2.10;;
64052;SDS011;50299;49.524;8.536;2023-06-26T15:10:55;3.88;;;2.20;;
64052;SDS011;50299;49.524;8.536;2023-06-26T15:13:21;2.85;;;2.28;;
64052;SDS011;50299;49.524;8.536;2023-06-26T15:15:48;3.95;;;2.83;;